Wetterdaten: Woche 14.12.20 - 20.12.20 (KW51)
Datum Zeit Temp. A. Feuchte A. Luftdruck Regen Wind Richtung Taupunkt Windchill Windben
14.12.2020 00:00 5,5 C 83 % 1015,8 hPa 0,0 l/m 0,1 km/h N 2,9 C 5,5 C 3,2 km/h
14.12.2020 01:00 5,5 C 83 % 1016,1 hPa 0,0 l/m 0,6 km/h N 2,9 C 5,5 C 4,4 km/h
14.12.2020 02:00 5,5 C 83 % 1016,7 hPa 0,0 l/m 0,6 km/h N 2,8 C 5,5 C 5,6 km/h
14.12.2020 03:00 5,4 C 83 % 1016,9 hPa 0,0 l/m 0,1 km/h N 2,7 C 5,4 C 3,6 km/h
14.12.2020 04:00 5,3 C 83 % 1017,0 hPa 0,0 l/m 0,0 km/h N 2,6 C 5,3 C 0,0 km/h
14.12.2020 05:00 5,1 C 83 % 1017,3 hPa 0,0 l/m 0,0 km/h N 2,5 C 5,1 C 0,0 km/h
14.12.2020 06:00 5,1 C 83 % 1017,9 hPa 0,0 l/m 0,0 km/h N 2,4 C 5,1 C 0,0 km/h
14.12.2020 07:00 4,7 C 84 % 1018,3 hPa 0,0 l/m 0,0 km/h N 2,3 C 4,7 C 0,0 km/h
14.12.2020 08:00 4,4 C 83 % 1018,7 hPa 0,0 l/m 0,0 km/h N 1,8 C 4,4 C 0,0 km/h
14.12.2020 09:00 5,1 C 82 % 1019,0 hPa 0,0 l/m 0,0 km/h N 2,2 C 5,1 C 0,0 km/h
14.12.2020 10:00 5,9 C 82 % 1019,0 hPa 0,0 l/m 0,1 km/h N 3,1 C 5,9 C 2,4 km/h
14.12.2020 11:00 6,6 C 83 % 1018,5 hPa 0,0 l/m 0,1 km/h N 3,9 C 6,6 C 3,2 km/h
14.12.2020 12:00 7,1 C 83 % 1018,3 hPa 0,0 l/m 0,0 km/h N 4,3 C 7,1 C 1,2 km/h
14.12.2020 13:00 7,2 C 81 % 1017,9 hPa 0,0 l/m 0,2 km/h N 4,1 C 7,2 C 2,8 km/h
14.12.2020 14:00 7,1 C 79 % 1017,8 hPa 0,0 l/m 0,1 km/h N 3,8 C 7,1 C 2,0 km/h
14.12.2020 15:00 6,9 C 79 % 1018,1 hPa 0,0 l/m 0,0 km/h N 3,6 C 6,9 C 0,0 km/h
14.12.2020 16:00 6,4 C 80 % 1018,4 hPa 0,0 l/m 0,0 km/h N 3,2 C 6,4 C 0,0 km/h
14.12.2020 17:00 5,3 C 81 % 1018,8 hPa 0,0 l/m 0,0 km/h N 2,2 C 5,3 C 0,0 km/h
14.12.2020 18:00 3,7 C 82 % 1018,9 hPa 0,0 l/m 0,0 km/h N 0,9 C 3,7 C 0,0 km/h
14.12.2020 19:00 2,3 C 83 % 1019,2 hPa 0,0 l/m 0,0 km/h N -0,4 C 2,3 C 0,0 km/h
14.12.2020 20:00 2,2 C 83 % 1019,0 hPa 0,0 l/m 0,0 km/h N -0,4 C 2,2 C 0,0 km/h
14.12.2020 21:00 3,1 C 83 % 1018,9 hPa 0,0 l/m 0,0 km/h N 0,5 C 3,1 C 0,0 km/h
14.12.2020 22:00 2,9 C 83 % 1018,9 hPa 0,0 l/m 0,3 km/h N 0,3 C 2,9 C 3,6 km/h
14.12.2020 23:00 2,4 C 83 % 1018,9 hPa 0,0 l/m 0,7 km/h N -0,2 C 2,4 C 5,6 km/h
15.12.2020 00:00 2,0 C 83 % 1018,5 hPa 0,0 l/m 0,2 km/h N -0,6 C 2,0 C 4,0 km/h
15.12.2020 01:00 1,5 C 83 % 1018,3 hPa 0,0 l/m 0,0 km/h N -1,1 C 1,5 C 2,0 km/h
15.12.2020 02:00 1,3 C 82 % 1018,3 hPa 0,0 l/m 0,0 km/h N -1,4 C 1,3 C 1,6 km/h
15.12.2020 03:00 1,3 C 82 % 1017,8 hPa 0,0 l/m 0,9 km/h N -1,4 C 1,3 C 6,0 km/h
15.12.2020 04:00 1,4 C 82 % 1017,6 hPa 0,0 l/m 0,6 km/h N -1,3 C 1,4 C 5,6 km/h
15.12.2020 05:00 1,7 C 82 % 1017,5 hPa 0,0 l/m 0,5 km/h N -1,0 C 1,7 C 4,8 km/h
15.12.2020 06:00 1,9 C 82 % 1017,8 hPa 0,0 l/m 0,9 km/h N -0,8 C 1,9 C 7,2 km/h
15.12.2020 07:00 2,1 C 82 % 1017,8 hPa 0,0 l/m 2,0 km/h N -0,6 C 2,1 C 8,0 km/h
15.12.2020 08:00 2,2 C 82 % 1018,2 hPa 0,0 l/m 0,4 km/h N -0,6 C 2,2 C 4,0 km/h
15.12.2020 09:00 2,4 C 82 % 1018,5 hPa 0,0 l/m 0,1 km/h N -0,3 C 2,4 C 3,6 km/h
15.12.2020 10:00 3,0 C 83 % 1018,7 hPa 0,0 l/m 0,4 km/h N 0,4 C 3,0 C 8,9 km/h
15.12.2020 11:00 3,7 C 83 % 1018,4 hPa 0,0 l/m 0,9 km/h N 1,1 C 3,7 C 7,6 km/h
15.12.2020 12:00 4,3 C 82 % 1018,1 hPa 0,0 l/m 1,0 km/h N 1,5 C 4,3 C 7,6 km/h
15.12.2020 13:00 4,8 C 81 % 1017,7 hPa 0,0 l/m 0,7 km/h N 1,8 C 4,8 C 7,2 km/h
15.12.2020 14:00 4,8 C 81 % 1017,6 hPa 0,0 l/m 1,4 km/h N 1,7 C 4,8 C 7,6 km/h
15.12.2020 15:00 4,3 C 81 % 1017,9 hPa 0,0 l/m 0,6 km/h N 1,3 C 4,3 C 8,4 km/h
15.12.2020 16:00 3,8 C 82 % 1018,1 hPa 0,0 l/m 0,4 km/h N 1,0 C 3,8 C 5,6 km/h
15.12.2020 17:00 3,6 C 82 % 1018,5 hPa 0,0 l/m 0,1 km/h N 0,8 C 3,6 C 4,8 km/h
15.12.2020 18:00 3,5 C 83 % 1018,9 hPa 0,0 l/m 0,0 km/h N 0,9 C 3,5 C 0,4 km/h
15.12.2020 19:00 3,4 C 83 % 1019,7 hPa 0,0 l/m 0,0 km/h N 0,8 C 3,4 C 2,0 km/h
15.12.2020 20:00 3,4 C 83 % 1020,0 hPa 0,0 l/m 0,0 km/h N 0,7 C 3,4 C 1,6 km/h
15.12.2020 21:00 3,3 C 83 % 1020,2 hPa 0,0 l/m 0,0 km/h N 0,6 C 3,3 C 0,8 km/h
15.12.2020 22:00 3,1 C 83 % 1020,5 hPa 0,0 l/m 0,0 km/h N 0,5 C 3,1 C 0,8 km/h
15.12.2020 23:00 2,8 C 83 % 1020,7 hPa 0,0 l/m 0,0 km/h N 0,2 C 2,8 C 0,0 km/h
16.12.2020 00:00 2,6 C 83 % 1021,0 hPa 0,0 l/m 0,0 km/h N 0,0 C 2,6 C 0,0 km/h
16.12.2020 01:00 2,8 C 83 % 1021,1 hPa 0,0 l/m 0,0 km/h N 0,2 C 2,8 C 0,0 km/h
16.12.2020 02:00 2,9 C 83 % 1021,5 hPa 0,0 l/m 0,0 km/h N 0,3 C 2,9 C 0,4 km/h
16.12.2020 03:00 2,9 C 83 % 1021,7 hPa 0,0 l/m 0,0 km/h N 0,3 C 2,9 C 0,0 km/h
16.12.2020 04:00 2,8 C 83 % 1021,3 hPa 0,0 l/m 0,0 km/h N 0,2 C 2,8 C 0,0 km/h
16.12.2020 05:00 2,8 C 83 % 1021,5 hPa 0,0 l/m 0,0 km/h N 0,2 C 2,8 C 0,0 km/h
16.12.2020 06:00 2,7 C 83 % 1021,8 hPa 0,0 l/m 0,0 km/h N 0,1 C 2,7 C 0,0 km/h
16.12.2020 07:00 2,7 C 83 % 1022,3 hPa 0,0 l/m 0,0 km/h N 0,1 C 2,7 C 0,0 km/h
16.12.2020 08:00 2,8 C 82 % 1022,6 hPa 0,0 l/m 0,0 km/h N 0,1 C 2,8 C 0,0 km/h
16.12.2020 09:00 2,8 C 82 % 1022,8 hPa 0,0 l/m 0,0 km/h N 0,1 C 2,8 C 0,0 km/h
16.12.2020 10:00 3,0 C 82 % 1022,9 hPa 0,0 l/m 0,0 km/h N 0,2 C 3,0 C 0,0 km/h
16.12.2020 11:00 3,1 C 82 % 1022,8 hPa 0,0 l/m 0,0 km/h N 0,3 C 3,1 C 0,0 km/h
16.12.2020 12:00 2,9 C 82 % 1022,8 hPa 0,0 l/m 0,0 km/h N 0,2 C 2,9 C 0,4 km/h
16.12.2020 13:00 2,9 C 82 % 1022,9 hPa 0,0 l/m 0,0 km/h N 0,1 C 2,9 C 0,0 km/h
16.12.2020 14:00 2,9 C 82 % 1023,2 hPa 0,0 l/m 0,0 km/h N 0,1 C 2,9 C 0,0 km/h
16.12.2020 15:00 2,8 C 82 % 1023,3 hPa 0,0 l/m 0,0 km/h N 0,0 C 2,8 C 0,4 km/h
16.12.2020 16:00 2,7 C 82 % 1023,3 hPa 0,0 l/m 0,0 km/h N -0,1 C 2,7 C 0,0 km/h
16.12.2020 17:00 2,5 C 82 % 1023,6 hPa 0,0 l/m 0,0 km/h N -0,2 C 2,5 C 0,4 km/h
16.12.2020 18:00 2,5 C 82 % 1023,6 hPa 0,0 l/m 0,0 km/h N -0,3 C 2,5 C 0,0 km/h
16.12.2020 19:00 2,5 C 82 % 1023,8 hPa 0,0 l/m 0,0 km/h N -0,3 C 2,5 C 0,0 km/h
16.12.2020 20:00 2,4 C 82 % 1024,1 hPa 0,0 l/m 0,0 km/h N -0,4 C 2,4 C 0,0 km/h
16.12.2020 21:00 2,4 C 82 % 1024,3 hPa 0,0 l/m 0,0 km/h N -0,4 C 2,4 C 0,0 km/h
16.12.2020 22:00 2,4 C 82 % 1024,4 hPa 0,0 l/m 0,0 km/h N -0,4 C 2,4 C 0,0 km/h
16.12.2020 23:00 2,3 C 82 % 1024,5 hPa 0,0 l/m 0,0 km/h N -0,4 C 2,3 C 0,0 km/h
17.12.2020 00:00 2,3 C 82 % 1024,5 hPa 0,0 l/m 0,0 km/h N -0,4 C 2,3 C 0,0 km/h
17.12.2020 01:00 2,3 C 82 % 1024,4 hPa 0,0 l/m 0,0 km/h N -0,5 C 2,3 C 0,0 km/h
17.12.2020 02:00 2,2 C 82 % 1024,4 hPa 0,0 l/m 0,0 km/h N -0,5 C 2,2 C 0,0 km/h
17.12.2020 03:00 2,1 C 82 % 1024,5 hPa 0,0 l/m 0,0 km/h N -0,6 C 2,1 C 0,0 km/h
17.12.2020 04:00 2,0 C 82 % 1024,6 hPa 0,0 l/m 0,0 km/h N -0,7 C 2,0 C 0,0 km/h
17.12.2020 05:00 2,0 C 82 % 1024,6 hPa 0,0 l/m 0,0 km/h N -0,7 C 2,0 C 0,0 km/h
17.12.2020 06:00 1,9 C 82 % 1024,7 hPa 0,0 l/m 0,0 km/h N -0,8 C 1,9 C 0,4 km/h
17.12.2020 07:00 2,0 C 82 % 1024,9 hPa 0,0 l/m 0,0 km/h N -0,7 C 2,0 C 0,0 km/h
17.12.2020 08:00 2,1 C 82 % 1025,4 hPa 0,0 l/m 0,0 km/h N -0,6 C 2,1 C 0,8 km/h
17.12.2020 09:00 2,2 C 82 % 1025,6 hPa 0,0 l/m 0,0 km/h N -0,5 C 2,2 C 0,0 km/h
17.12.2020 10:00 2,3 C 82 % 1026,0 hPa 0,0 l/m 0,0 km/h N -0,5 C 2,3 C 0,0 km/h
17.12.2020 11:00 2,3 C 82 % 1026,0 hPa 0,0 l/m 0,0 km/h N -0,4 C 2,3 C 0,4 km/h
17.12.2020 12:00 2,4 C 82 % 1026,1 hPa 0,0 l/m 0,0 km/h N -0,4 C 2,4 C 0,8 km/h
17.12.2020 13:00 2,4 C 82 % 1025,9 hPa 0,0 l/m 0,2 km/h N -0,3 C 2,4 C 2,4 km/h
17.12.2020 14:00 2,6 C 82 % 1025,9 hPa 0,0 l/m 0,1 km/h N -0,1 C 2,6 C 2,0 km/h
17.12.2020 15:00 2,8 C 83 % 1026,2 hPa 0,0 l/m 0,0 km/h N 0,1 C 2,8 C 0,0 km/h
17.12.2020 16:00 2,8 C 83 % 1026,7 hPa 0,0 l/m 0,0 km/h N 0,2 C 2,8 C 0,0 km/h
17.12.2020 17:00 2,8 C 83 % 1027,0 hPa 0,0 l/m 0,0 km/h N 0,2 C 2,8 C 0,0 km/h
17.12.2020 18:00 2,8 C 83 % 1027,1 hPa 0,0 l/m 0,0 km/h N 0,2 C 2,8 C 0,0 km/h
17.12.2020 19:00 2,6 C 83 % 1027,3 hPa 0,0 l/m 0,0 km/h N -0,0 C 2,6 C 0,4 km/h
17.12.2020 20:00 2,1 C 83 % 1027,8 hPa 0,0 l/m 0,0 km/h N -0,5 C 2,1 C 0,0 km/h
17.12.2020 21:00 1,8 C 83 % 1028,0 hPa 0,0 l/m 0,0 km/h N -0,8 C 1,8 C 0,4 km/h
17.12.2020 22:00 2,1 C 82 % 1028,0 hPa 0,0 l/m 0,0 km/h N -0,6 C 2,1 C 1,6 km/h
17.12.2020 23:00 2,4 C 82 % 1028,1 hPa 0,0 l/m 0,0 km/h N -0,4 C 2,4 C 1,6 km/h
18.12.2020 00:00 2,4 C 82 % 1028,1 hPa 0,0 l/m 0,0 km/h N -0,4 C 2,4 C 0,4 km/h
18.12.2020 01:00 2,5 C 82 % 1028,1 hPa 0,0 l/m 0,0 km/h N -0,2 C 2,5 C 0,0 km/h
18.12.2020 02:00 2,6 C 82 % 1028,3 hPa 0,0 l/m 0,0 km/h N -0,1 C 2,6 C 0,4 km/h
18.12.2020 03:00 2,6 C 82 % 1028,3 hPa 0,0 l/m 0,0 km/h N -0,1 C 2,6 C 0,8 km/h
18.12.2020 04:00 2,3 C 82 % 1028,4 hPa 0,0 l/m 0,0 km/h N -0,4 C 2,3 C 0,8 km/h
18.12.2020 05:00 2,2 C 82 % 1028,4 hPa 0,0 l/m 0,0 km/h N -0,6 C 2,2 C 0,0 km/h
18.12.2020 06:00 2,1 C 82 % 1028,8 hPa 0,0 l/m 0,0 km/h N -0,7 C 2,1 C 0,0 km/h
18.12.2020 07:00 2,0 C 82 % 1029,1 hPa 0,0 l/m 0,0 km/h N -0,7 C 2,0 C 0,0 km/h
18.12.2020 08:00 2,2 C 82 % 1029,5 hPa 0,0 l/m 0,0 km/h N -0,6 C 2,2 C 0,4 km/h
18.12.2020 09:00 2,5 C 82 % 1029,8 hPa 0,0 l/m 0,0 km/h N -0,3 C 2,5 C 0,0 km/h
18.12.2020 10:00 3,1 C 82 % 1029,9 hPa 0,0 l/m 0,0 km/h N 0,3 C 3,1 C 0,0 km/h
18.12.2020 11:00 3,1 C 82 % 1029,6 hPa 0,0 l/m 0,0 km/h N 0,3 C 3,1 C 0,0 km/h
18.12.2020 12:00 2,8 C 82 % 1029,3 hPa 0,0 l/m 0,0 km/h N 0,1 C 2,8 C 0,0 km/h
18.12.2020 13:00 2,5 C 82 % 1029,1 hPa 0,0 l/m 0,0 km/h N -0,3 C 2,5 C 0,0 km/h
18.12.2020 14:00 2,4 C 82 % 1028,9 hPa 0,0 l/m 0,0 km/h N -0,4 C 2,4 C 0,4 km/h
18.12.2020 15:00 2,4 C 82 % 1029,1 hPa 0,0 l/m 0,0 km/h N -0,4 C 2,4 C 2,0 km/h
18.12.2020 16:00 2,4 C 82 % 1029,3 hPa 0,0 l/m 0,0 km/h N -0,4 C 2,4 C 1,2 km/h
18.12.2020 17:00 2,3 C 82 % 1029,3 hPa 0,0 l/m 0,0 km/h N -0,4 C 2,3 C 1,6 km/h
18.12.2020 18:00 1,8 C 82 % 1029,2 hPa 0,0 l/m 0,0 km/h N -1,0 C 1,8 C 3,2 km/h
18.12.2020 19:00 1,3 C 82 % 1029,1 hPa 0,0 l/m 0,0 km/h N -1,4 C 1,3 C 1,2 km/h
18.12.2020 20:00 1,3 C 83 % 1028,9 hPa 0,0 l/m 0,0 km/h N -1,3 C 1,3 C 1,6 km/h
18.12.2020 21:00 1,1 C 83 % 1028,7 hPa 0,0 l/m 0,0 km/h N -1,5 C 1,1 C 2,0 km/h
18.12.2020 22:00 1,0 C 83 % 1028,5 hPa 0,0 l/m 0,1 km/h N -1,6 C 1,0 C 3,2 km/h
18.12.2020 23:00 1,0 C 83 % 1028,5 hPa 0,3 l/m 0,0 km/h N -1,5 C 1,0 C 0,0 km/h
19.12.2020 00:00 1,1 C 83 % 1028,3 hPa 0,0 l/m 0,0 km/h N -1,5 C 1,1 C 1,6 km/h
19.12.2020 01:00 0,9 C 83 % 1028,0 hPa 0,3 l/m 0,0 km/h N -1,7 C 0,9 C 0,0 km/h
19.12.2020 02:00 0,9 C 83 % 1027,7 hPa 0,0 l/m 0,0 km/h N -1,6 C 0,9 C 1,2 km/h
19.12.2020 03:00 1,0 C 83 % 1027,0 hPa 0,0 l/m 0,1 km/h N -1,5 C 1,0 C 2,8 km/h
19.12.2020 04:00 1,0 C 83 % 1026,8 hPa 0,0 l/m 0,0 km/h N -1,6 C 1,0 C 0,8 km/h
19.12.2020 05:00 1,0 C 84 % 1026,5 hPa 0,3 l/m 0,0 km/h N -1,4 C 1,0 C 1,2 km/h
19.12.2020 06:00 0,9 C 84 % 1026,5 hPa 0,0 l/m 0,1 km/h N -1,5 C 0,9 C 2,0 km/h
19.12.2020 07:00 1,1 C 84 % 1026,6 hPa 0,0 l/m 0,0 km/h N -1,3 C 1,1 C 0,8 km/h
19.12.2020 08:00 1,3 C 84 % 1026,7 hPa 0,3 l/m 0,0 km/h N -1,1 C 1,3 C 0,0 km/h
19.12.2020 09:00 1,6 C 84 % 1026,5 hPa 0,0 l/m 0,1 km/h N -0,8 C 1,6 C 1,6 km/h
19.12.2020 10:00 1,5 C 84 % 1026,3 hPa 0,0 l/m 0,2 km/h N -0,9 C 1,5 C 4,0 km/h
19.12.2020 11:00 1,7 C 84 % 1025,8 hPa 0,0 l/m 0,1 km/h N -0,7 C 1,7 C 4,4 km/h
19.12.2020 12:00 1,8 C 84 % 1025,3 hPa 0,0 l/m 0,6 km/h N -0,6 C 1,8 C 7,2 km/h
19.12.2020 13:00 1,9 C 84 % 1024,9 hPa 0,0 l/m 0,2 km/h N -0,5 C 1,9 C 4,4 km/h
19.12.2020 14:00 2,0 C 84 % 1024,9 hPa 0,0 l/m 0,1 km/h N -0,4 C 2,0 C 4,0 km/h
19.12.2020 15:00 2,1 C 84 % 1025,2 hPa 0,0 l/m 0,1 km/h N -0,3 C 2,1 C 5,2 km/h
19.12.2020 16:00 2,1 C 84 % 1025,4 hPa 0,0 l/m 0,0 km/h N -0,3 C 2,1 C 1,2 km/h
19.12.2020 17:00 2,2 C 84 % 1025,5 hPa 0,0 l/m 0,0 km/h N -0,2 C 2,2 C 0,0 km/h
19.12.2020 18:00 2,2 C 84 % 1025,7 hPa 0,0 l/m 0,1 km/h N -0,2 C 2,2 C 2,4 km/h
19.12.2020 19:00 2,1 C 84 % 1025,9 hPa 0,0 l/m 0,0 km/h N -0,3 C 2,1 C 0,0 km/h
19.12.2020 20:00 2,1 C 84 % 1026,2 hPa 0,0 l/m 0,0 km/h N -0,3 C 2,1 C 0,0 km/h
19.12.2020 21:00 2,1 C 84 % 1026,4 hPa 0,3 l/m 0,0 km/h N -0,3 C 2,1 C 0,8 km/h
19.12.2020 22:00 2,1 C 84 % 1026,6 hPa 0,0 l/m 0,0 km/h N -0,3 C 2,1 C 1,2 km/h
19.12.2020 23:00 2,1 C 84 % 1026,6 hPa 0,0 l/m 0,0 km/h N -0,3 C 2,1 C 0,0 km/h
20.12.2020 00:00 2,0 C 84 % 1026,4 hPa 0,0 l/m 0,0 km/h N -0,4 C 2,0 C 0,8 km/h
20.12.2020 01:00 2,0 C 84 % 1026,2 hPa 0,0 l/m 0,0 km/h N -0,4 C 2,0 C 0,0 km/h
20.12.2020 02:00 2,0 C 84 % 1026,3 hPa 0,0 l/m 0,0 km/h N -0,5 C 2,0 C 0,0 km/h
20.12.2020 03:00 1,9 C 84 % 1026,2 hPa 0,0 l/m 0,0 km/h N -0,5 C 1,9 C 0,8 km/h
20.12.2020 04:00 2,0 C 84 % 1026,0 hPa 0,0 l/m 0,0 km/h N -0,4 C 2,0 C 0,0 km/h
20.12.2020 05:00 2,1 C 84 % 1025,9 hPa 0,0 l/m 0,0 km/h N -0,3 C 2,1 C 2,0 km/h
20.12.2020 06:00 2,1 C 84 % 1026,0 hPa 0,0 l/m 0,0 km/h N -0,3 C 2,1 C 0,0 km/h
20.12.2020 07:00 2,1 C 84 % 1026,1 hPa 0,0 l/m 0,0 km/h N -0,3 C 2,1 C 1,2 km/h
20.12.2020 08:00 1,9 C 84 % 1026,1 hPa 0,0 l/m 0,0 km/h N -0,5 C 1,9 C 3,6 km/h
20.12.2020 09:00 2,0 C 84 % 1026,2 hPa 0,0 l/m 0,2 km/h N -0,4 C 2,0 C 2,0 km/h
20.12.2020 10:00 2,2 C 84 % 1026,3 hPa 0,0 l/m 0,3 km/h N -0,2 C 2,2 C 6,4 km/h
20.12.2020 11:00 2,3 C 84 % 1026,1 hPa 0,0 l/m 0,0 km/h N -0,1 C 2,3 C 1,2 km/h
20.12.2020 12:00 2,4 C 83 % 1025,7 hPa 0,0 l/m 0,1 km/h N -0,2 C 2,4 C 3,6 km/h
20.12.2020 13:00 2,5 C 83 % 1025,5 hPa 0,0 l/m 0,0 km/h N -0,2 C 2,5 C 0,8 km/h
20.12.2020 14:00 2,7 C 82 % 1025,4 hPa 0,0 l/m 0,1 km/h N -0,1 C 2,7 C 2,8 km/h
20.12.2020 15:00 2,9 C 82 % 1025,6 hPa 0,0 l/m 0,1 km/h N 0,1 C 2,9 C 2,4 km/h
20.12.2020 16:00 2,9 C 82 % 1025,6 hPa 0,0 l/m 0,7 km/h N 0,2 C 2,9 C 6,0 km/h
20.12.2020 17:00 3,1 C 82 % 1025,4 hPa 0,0 l/m 0,3 km/h N 0,3 C 3,1 C 1,6 km/h
20.12.2020 18:00 3,0 C 82 % 1025,6 hPa 0,0 l/m 0,1 km/h N 0,3 C 3,0 C 1,6 km/h
20.12.2020 19:00 2,9 C 82 % 1025,7 hPa 0,0 l/m 0,0 km/h N 0,1 C 2,9 C 2,8 km/h
20.12.2020 20:00 2,9 C 82 % 1025,9 hPa 0,0 l/m 0,0 km/h N 0,1 C 2,9 C 2,0 km/h
20.12.2020 21:00 3,0 C 83 % 1025,9 hPa 0,0 l/m 0,0 km/h N 0,3 C 3,0 C 0,8 km/h
20.12.2020 22:00 3,0 C 83 % 1026,1 hPa 0,0 l/m 0,0 km/h N 0,4 C 3,0 C 0,0 km/h
20.12.2020 23:00 2,9 C 83 % 1026,4 hPa 0,0 l/m 0,0 km/h N 0,3 C 2,9 C 0,0 km/h
Min-Datum _ 19.12.20 14.12.20 14.12.20 - 14.12.20 - 19.12.20 19.12.20 14.12.20
_ Min-Zeit 01:45 14:15 00:00 - 00:30 - 01:45 01:45 00:45
Minimum _ 0,8 C 79 % 1015,7 hPa - 0,0 km/h - -1,8 C 0,8 C 0,0 km/h
Max-Datum _ 14.12.20 14.12.20 18.12.20 18.12.20 15.12.20 - 14.12.20 14.12.20 15.12.20
_ Max-Zeit 12:45 07:00 10:00 23:45 14:30 - 12:30 12:45 12:30
Maximum _ 7,2 C 88 % 1030,0 hPa 0,3 l/m 3,6 km/h
N
- 4,4 C 7,2 C 11,3 km/h
N
Durchschnitt _ 2,7 C 83 % 1023,8 hPa #1,3 l/m 0,1 km/h N 0,1 C 2,7 C 1,6 km/h